MMAA/ACA METAR and TAF weather

Enter ICAO airport designator
Station Type Date Time Source
MMAA METAR 2019/04/25 11:51 UTC NOAA

MMAA 251151Z 00000KT 6SM FEW300 21/19 A2986 RMK SLP101 57003 900 8/002 HZY


Station Type Date Time Source
MMAA Decoded METAR 2019/04/25 11:51 UTC NOAA

Acapulco / G. Alvarez, Mexico (MMAA) 16-46N 099-45W
Apr 25, 2019 - 07:51 AM EDT / 2019.04.25 1151 UTC
Wind: Calm:0
Visibility: 6 mile(s):0
Sky conditions: mostly clear
Temperature: 69 F (21 C)
Dew Point: 66 F (19 C)
Relative Humidity: 88%
Pressure (altimeter): 29.86 in. Hg (1011 hPa)
Pressure tendency: 0.01 inches (0.3 hPa) lower than three hours ago
ob: MMAA 251151Z 00000KT 6SM FEW300 21/19 A2986 RMK SLP101 57003 900 8/002 HZY
cycle: 12

Station Type Date Time Source
MMAA TAF 2019/04/25 12:41 UTC NOAA

TAF MMAA 251034Z 2512/2618 04005KT 5SM HZ SKC TX28/2519Z TN22/2512Z
FM251800 24012KT P6SM BKN250
FM260600 34005KT P6SM SCT250
FM261700 24012KT P6SM SCT020 BKN250

Example: see airport list